Vero Beach, FL

6:58 AM EST on December 27, 2014 (GMT -0500)
Vero Beach Municipal | Change Station
CLOSE
Current Station
Airport
Location: Vero Beach,
Elevation: 23 ft
Nearby Weather Stations

Elev 23 ft 27.66 °N, 80.42 °W | Updated 5 minutes ago

Mostly Cloudy
Mostly Cloudy
65 °F
Feels Like 65 °F
N
5
Wind Variable Wind from WNW

Today
High -- | Low -- °F
--% Chance of Precip.
Yesterday
High -- | Low -- °F
Precip. -- in
7:10 AM 5:34 PM
Waxing Crescent, 36% visible
Pressure 30.20 in
Visibility 8.0 miles
Clouds Few 900 ft
Scattered Clouds 1400 ft
Mostly Cloudy 7000 ft
Dew Point 62 °F
Humidity 90%
Rainfall 0.00 in
Snow Depth Not available.
UV 0 out of 12
Pollen 4.50 out of 12
Air Quality Not available.
Flu Activity Not available.
METAR KVRB 271153Z AUTO 29004KT 8SM FEW009 SCT014 BKN070 18/17 A3020 RMK AO2 SLP226 70002 T01830167 10222 20183 53010

More Conditions Fewer Conditions

Pressure 30.20 in
Visibility 8.0 miles
Clouds Few 900 ft
Scattered Clouds 1400 ft
Mostly Cloudy 7000 ft
Dew Point 62 °F
Humidity 90%
Rainfall 0.00 in
Snow Depth Not available.
UV 0 out of 12
Pollen 4.50 out of 12
Air Quality Not available.
Flu Activity Not available.
METAR KVRB 271153Z AUTO 29004KT 8SM FEW009 SCT014 BKN070 18/17 A3020 RMK AO2 SLP226 70002 T01830167 10222 20183 53010

More Conditions Fewer Conditions

Nowcast | as of 4:54 am EST on December 27, 2014

Patchy fog has developed across portions of the Treasure Coast and Okeechobee County early this morning. Visibilities will generally be 3 to 5 miles in fog...but locally lower conditions of 1 mile or less will be possible especially across Martin and Saint Lucie counties. Fog may spread into far southern Osceola and Indian River counties through daybreak. If you are out driving this morning and encounter fog; slow down... leave plenty of room between you and the car and front of you...and use your low beam headlights. Additional details...including graphics are available online at: http://www.Srh.NOAA.Gov/mlb/blog.Php

×

10-Day Weather Forecast

Almanac

Astronomy

Dec. 27, 2014 Rise Set
Actual Time
Civil Twilight
Nautical Twilight
Astronomical Twilight
Moon
Length of Visible Light
Length of Day
Tomorrow will be .
, % of the Moon is Illuminated

Today's Extremes

State Highs State Lows

Community

WunderPhotos

Upload Photos

1,780,885 photos uploaded!

WunderBlogs® & News

Nearby

Air Quality

  Air Quality AQ Index Pollutant
Not available.

Snow Depth

Station Depth Elevation

Earthquake Activity

City Distance Mag. Time & Date
Minimum magnitude displayed is 2.5.

Coastal Water Temperatures

Place Temperature

Nearby Weather Stations